sensor_id;sensor_type;location;lat;lon;timestamp;P1;durP1;ratioP1;P2;durP2;ratioP2
48040;SDS011;33815;48.386;11.738;2023-04-06T00:03:24;7.35;;;3.40;;
48040;SDS011;33815;48.386;11.738;2023-04-06T00:05:49;9.00;;;4.45;;
48040;SDS011;33815;48.386;11.738;2023-04-06T00:08:15;6.30;;;4.68;;
48040;SDS011;33815;48.386;11.738;2023-04-06T00:10:40;9.70;;;5.20;;
48040;SDS011;33815;48.386;11.738;2023-04-06T00:13:06;6.07;;;4.88;;
48040;SDS011;33815;48.386;11.738;2023-04-06T00:15:32;8.38;;;4.82;;
48040;SDS011;33815;48.386;11.738;2023-04-06T00:17:58;10.93;;;4.97;;
48040;SDS011;33815;48.386;11.738;2023-04-06T00:20:23;6.43;;;4.13;;
48040;SDS011;33815;48.386;11.738;2023-04-06T00:22:49;10.05;;;5.15;;
48040;SDS011;33815;48.386;11.738;2023-04-06T00:27:40;5.45;;;4.28;;
48040;SDS011;33815;48.386;11.738;2023-04-06T00:30:06;11.38;;;4.47;;
48040;SDS011;33815;48.386;11.738;2023-04-06T00:32:32;7.57;;;4.38;;
48040;SDS011;33815;48.386;11.738;2023-04-06T00:34:58;7.60;;;4.57;;
48040;SDS011;33815;48.386;11.738;2023-04-06T00:37:23;7.53;;;4.93;;
48040;SDS011;33815;48.386;11.738;2023-04-06T00:39:49;9.32;;;4.63;;
48040;SDS011;33815;48.386;11.738;2023-04-06T00:42:16;10.00;;;4.35;;
48040;SDS011;33815;48.386;11.738;2023-04-06T00:44:43;5.65;;;4.43;;
48040;SDS011;33815;48.386;11.738;2023-04-06T00:47:08;9.15;;;4.72;;
48040;SDS011;33815;48.386;11.738;2023-04-06T00:49:34;7.43;;;5.20;;
48040;SDS011;33815;48.386;11.738;2023-04-06T00:52:00;9.68;;;4.20;;
48040;SDS011;33815;48.386;11.738;2023-04-06T00:54:26;5.82;;;3.55;;
48040;SDS011;33815;48.386;11.738;2023-04-06T00:56:52;5.40;;;4.05;;
48040;SDS011;33815;48.386;11.738;2023-04-06T00:59:17;6.57;;;4.47;;
48040;SDS011;33815;48.386;11.738;2023-04-06T01:01:43;8.80;;;4.78;;
48040;SDS011;33815;48.386;11.738;2023-04-06T01:04:08;4.45;;;3.58;;
48040;SDS011;33815;48.386;11.738;2023-04-06T01:06:34;5.28;;;3.90;;
48040;SDS011;33815;48.386;11.738;2023-04-06T01:08:59;8.48;;;4.20;;
48040;SDS011;33815;48.386;11.738;2023-04-06T01:11:24;7.22;;;4.25;;
48040;SDS011;33815;48.386;11.738;2023-04-06T01:13:51;5.85;;;4.55;;
48040;SDS011;33815;48.386;11.738;2023-04-06T01:16:16;6.55;;;4.35;;
48040;SDS011;33815;48.386;11.738;2023-04-06T01:18:41;6.32;;;3.63;;
48040;SDS011;33815;48.386;11.738;2023-04-06T01:21:07;4.55;;;4.00;;
48040;SDS011;33815;48.386;11.738;2023-04-06T01:23:33;4.82;;;4.35;;
48040;SDS011;33815;48.386;11.738;2023-04-06T01:25:59;6.57;;;4.32;;
48040;SDS011;33815;48.386;11.738;2023-04-06T01:28:25;5.72;;;4.00;;
48040;SDS011;33815;48.386;11.738;2023-04-06T01:30:50;5.93;;;3.72;;
48040;SDS011;33815;48.386;11.738;2023-04-06T01:33:15;7.20;;;4.60;;
48040;SDS011;33815;48.386;11.738;2023-04-06T01:35:41;8.88;;;4.07;;
48040;SDS011;33815;48.386;11.738;2023-04-06T01:38:06;7.22;;;4.38;;
48040;SDS011;33815;48.386;11.738;2023-04-06T01:40:31;6.25;;;4.13;;
48040;SDS011;33815;48.386;11.738;2023-04-06T01:42:57;7.57;;;4.22;;
48040;SDS011;33815;48.386;11.738;2023-04-06T01:45:22;8.60;;;4.93;;
48040;SDS011;33815;48.386;11.738;2023-04-06T01:47:47;5.13;;;4.45;;
48040;SDS011;33815;48.386;11.738;2023-04-06T01:50:12;6.75;;;4.57;;
48040;SDS011;33815;48.386;11.738;2023-04-06T01:52:38;8.52;;;4.95;;
48040;SDS011;33815;48.386;11.738;2023-04-06T01:55:03;7.65;;;4.57;;
48040;SDS011;33815;48.386;11.738;2023-04-06T01:57:28;12.43;;;5.18;;
48040;SDS011;33815;48.386;11.738;2023-04-06T01:59:54;6.18;;;4.55;;
48040;SDS011;33815;48.386;11.738;2023-04-06T02:02:19;5.60;;;4.32;;
48040;SDS011;33815;48.386;11.738;2023-04-06T02:04:45;7.00;;;4.60;;
48040;SDS011;33815;48.386;11.738;2023-04-06T02:07:10;10.45;;;4.85;;
48040;SDS011;33815;48.386;11.738;2023-04-06T02:09:35;6.63;;;4.70;;
48040;SDS011;33815;48.386;11.738;2023-04-06T02:12:01;6.68;;;4.38;;
48040;SDS011;33815;48.386;11.738;2023-04-06T02:14:26;7.28;;;4.68;;
48040;SDS011;33815;48.386;11.738;2023-04-06T02:16:52;6.18;;;4.88;;
48040;SDS011;33815;48.386;11.738;2023-04-06T02:19:18;5.85;;;4.80;;
48040;SDS011;33815;48.386;11.738;2023-04-06T02:21:43;7.13;;;4.80;;
48040;SDS011;33815;48.386;11.738;2023-04-06T02:24:08;5.32;;;4.05;;
48040;SDS011;33815;48.386;11.738;2023-04-06T02:26:33;5.25;;;4.18;;
48040;SDS011;33815;48.386;11.738;2023-04-06T02:28:59;6.50;;;4.32;;
48040;SDS011;33815;48.386;11.738;2023-04-06T02:31:24;7.03;;;4.55;;
48040;SDS011;33815;48.386;11.738;2023-04-06T02:33:49;9.40;;;4.55;;
48040;SDS011;33815;48.386;11.738;2023-04-06T02:36:15;9.52;;;5.07;;
48040;SDS011;33815;48.386;11.738;2023-04-06T02:38:40;6.45;;;4.68;;
48040;SDS011;33815;48.386;11.738;2023-04-06T02:41:05;9.23;;;4.63;;
48040;SDS011;33815;48.386;11.738;2023-04-06T02:43:31;7.30;;;4.63;;
48040;SDS011;33815;48.386;11.738;2023-04-06T02:45:56;6.10;;;3.95;;
48040;SDS011;33815;48.386;11.738;2023-04-06T02:48:21;5.90;;;4.47;;
48040;SDS011;33815;48.386;11.738;2023-04-06T02:50:46;6.50;;;4.68;;
48040;SDS011;33815;48.386;11.738;2023-04-06T02:53:12;9.07;;;4.75;;
48040;SDS011;33815;48.386;11.738;2023-04-06T02:55:37;6.30;;;4.65;;
48040;SDS011;33815;48.386;11.738;2023-04-06T02:58:02;8.50;;;4.57;;
48040;SDS011;33815;48.386;11.738;2023-04-06T03:00:27;13.27;;;5.00;;
48040;SDS011;33815;48.386;11.738;2023-04-06T03:02:53;8.32;;;5.70;;
48040;SDS011;33815;48.386;11.738;2023-04-06T03:05:18;12.82;;;4.85;;
48040;SDS011;33815;48.386;11.738;2023-04-06T03:07:43;7.38;;;4.90;;
48040;SDS011;33815;48.386;11.738;2023-04-06T03:10:09;6.35;;;4.45;;
48040;SDS011;33815;48.386;11.738;2023-04-06T03:12:35;6.65;;;4.90;;
48040;SDS011;33815;48.386;11.738;2023-04-06T03:15:00;6.60;;;5.32;;
48040;SDS011;33815;48.386;11.738;2023-04-06T03:17:25;6.88;;;4.43;;
48040;SDS011;33815;48.386;11.738;2023-04-06T03:19:50;9.80;;;5.60;;
48040;SDS011;33815;48.386;11.738;2023-04-06T03:22:16;5.13;;;4.63;;
48040;SDS011;33815;48.386;11.738;2023-04-06T03:24:41;7.45;;;5.00;;
48040;SDS011;33815;48.386;11.738;2023-04-06T03:27:06;9.05;;;5.30;;
48040;SDS011;33815;48.386;11.738;2023-04-06T03:29:31;5.03;;;4.15;;
48040;SDS011;33815;48.386;11.738;2023-04-06T03:31:57;6.57;;;5.38;;
48040;SDS011;33815;48.386;11.738;2023-04-06T03:34:22;5.72;;;5.07;;
48040;SDS011;33815;48.386;11.738;2023-04-06T03:36:47;9.10;;;5.75;;
48040;SDS011;33815;48.386;11.738;2023-04-06T03:39:12;8.82;;;5.15;;
48040;SDS011;33815;48.386;11.738;2023-04-06T03:41:38;11.20;;;5.43;;
48040;SDS011;33815;48.386;11.738;2023-04-06T03:44:03;7.53;;;4.97;;
48040;SDS011;33815;48.386;11.738;2023-04-06T03:46:28;9.70;;;5.22;;
48040;SDS011;33815;48.386;11.738;2023-04-06T03:48:54;9.65;;;5.72;;
48040;SDS011;33815;48.386;11.738;2023-04-06T03:51:19;8.57;;;5.53;;
48040;SDS011;33815;48.386;11.738;2023-04-06T03:53:44;7.88;;;4.68;;
48040;SDS011;33815;48.386;11.738;2023-04-06T03:56:10;5.60;;;4.63;;
48040;SDS011;33815;48.386;11.738;2023-04-06T03:58:35;7.30;;;5.50;;
48040;SDS011;33815;48.386;11.738;2023-04-06T04:01:00;7.32;;;5.43;;
48040;SDS011;33815;48.386;11.738;2023-04-06T04:03:26;7.97;;;5.32;;
48040;SDS011;33815;48.386;11.738;2023-04-06T04:05:52;7.95;;;5.30;;
48040;SDS011;33815;48.386;11.738;2023-04-06T04:08:18;7.72;;;5.45;;
48040;SDS011;33815;48.386;11.738;2023-04-06T04:10:43;8.13;;;5.10;;
48040;SDS011;33815;48.386;11.738;2023-04-06T04:13:08;6.80;;;4.80;;
48040;SDS011;33815;48.386;11.738;2023-04-06T04:15:34;8.20;;;5.60;;
48040;SDS011;33815;48.386;11.738;2023-04-06T04:17:59;7.78;;;5.18;;
48040;SDS011;33815;48.386;11.738;2023-04-06T04:20:25;7.07;;;5.28;;
48040;SDS011;33815;48.386;11.738;2023-04-06T04:22:50;9.18;;;4.70;;
48040;SDS011;33815;48.386;11.738;2023-04-06T04:25:15;8.05;;;5.40;;
48040;SDS011;33815;48.386;11.738;2023-04-06T04:27:40;5.88;;;4.65;;
48040;SDS011;33815;48.386;11.738;2023-04-06T04:30:06;6.13;;;4.50;;
48040;SDS011;33815;48.386;11.738;2023-04-06T04:32:32;6.68;;;5.10;;
48040;SDS011;33815;48.386;11.738;2023-04-06T04:34:57;9.27;;;5.28;;
48040;SDS011;33815;48.386;11.738;2023-04-06T04:37:22;6.82;;;4.95;;
48040;SDS011;33815;48.386;11.738;2023-04-06T04:39:47;5.50;;;4.70;;
48040;SDS011;33815;48.386;11.738;2023-04-06T04:42:13;9.63;;;5.18;;
48040;SDS011;33815;48.386;11.738;2023-04-06T04:44:38;9.15;;;5.10;;
48040;SDS011;33815;48.386;11.738;2023-04-06T04:47:03;8.02;;;5.30;;
48040;SDS011;33815;48.386;11.738;2023-04-06T04:49:29;9.75;;;6.03;;
48040;SDS011;33815;48.386;11.738;2023-04-06T04:51:54;7.10;;;5.97;;
48040;SDS011;33815;48.386;11.738;2023-04-06T04:54:20;7.88;;;5.63;;
48040;SDS011;33815;48.386;11.738;2023-04-06T04:56:45;13.77;;;6.38;;
48040;SDS011;33815;48.386;11.738;2023-04-06T04:59:10;8.48;;;5.95;;
48040;SDS011;33815;48.386;11.738;2023-04-06T05:01:36;10.20;;;6.55;;
48040;SDS011;33815;48.386;11.738;2023-04-06T05:04:01;8.52;;;6.00;;
48040;SDS011;33815;48.386;11.738;2023-04-06T05:06:26;9.40;;;6.13;;
48040;SDS011;33815;48.386;11.738;2023-04-06T05:08:51;7.95;;;6.05;;
48040;SDS011;33815;48.386;11.738;2023-04-06T05:11:17;8.27;;;6.38;;
48040;SDS011;33815;48.386;11.738;2023-04-06T05:13:42;10.55;;;6.70;;
48040;SDS011;33815;48.386;11.738;2023-04-06T05:16:07;13.75;;;6.88;;
48040;SDS011;33815;48.386;11.738;2023-04-06T05:18:33;13.38;;;7.00;;
48040;SDS011;33815;48.386;11.738;2023-04-06T05:20:58;16.40;;;7.68;;
48040;SDS011;33815;48.386;11.738;2023-04-06T05:23:23;11.27;;;7.50;;
48040;SDS011;33815;48.386;11.738;2023-04-06T05:25:49;11.55;;;8.00;;
48040;SDS011;33815;48.386;11.738;2023-04-06T05:28:14;12.85;;;7.07;;
48040;SDS011;33815;48.386;11.738;2023-04-06T05:30:41;10.10;;;7.38;;
48040;SDS011;33815;48.386;11.738;2023-04-06T05:33:07;12.35;;;7.43;;
48040;SDS011;33815;48.386;11.738;2023-04-06T05:35:32;13.45;;;8.40;;
48040;SDS011;33815;48.386;11.738;2023-04-06T05:37:58;13.00;;;7.63;;
48040;SDS011;33815;48.386;11.738;2023-04-06T05:40:23;11.55;;;7.00;;
48040;SDS011;33815;48.386;11.738;2023-04-06T05:42:48;13.85;;;8.90;;
48040;SDS011;33815;48.386;11.738;2023-04-06T05:45:15;14.38;;;9.05;;
48040;SDS011;33815;48.386;11.738;2023-04-06T05:47:43;14.98;;;8.38;;
48040;SDS011;33815;48.386;11.738;2023-04-06T05:50:14;13.70;;;9.45;;
48040;SDS011;33815;48.386;11.738;2023-04-06T05:52:40;15.35;;;9.20;;
48040;SDS011;33815;48.386;11.738;2023-04-06T05:55:08;14.13;;;8.30;;
48040;SDS011;33815;48.386;11.738;2023-04-06T05:57:34;16.80;;;7.90;;
48040;SDS011;33815;48.386;11.738;2023-04-06T05:59:59;14.52;;;8.20;;
48040;SDS011;33815;48.386;11.738;2023-04-06T06:02:24;11.18;;;8.02;;
48040;SDS011;33815;48.386;11.738;2023-04-06T06:04:50;13.13;;;9.23;;
48040;SDS011;33815;48.386;11.738;2023-04-06T06:07:15;12.75;;;8.10;;
48040;SDS011;33815;48.386;11.738;2023-04-06T06:09:41;12.55;;;8.40;;
48040;SDS011;33815;48.386;11.738;2023-04-06T06:12:07;15.73;;;9.40;;
48040;SDS011;33815;48.386;11.738;2023-04-06T06:14:32;13.82;;;9.77;;
48040;SDS011;33815;48.386;11.738;2023-04-06T06:16:57;14.38;;;9.82;;
48040;SDS011;33815;48.386;11.738;2023-04-06T06:19:22;12.07;;;9.30;;
48040;SDS011;33815;48.386;11.738;2023-04-06T06:21:48;14.93;;;9.23;;
48040;SDS011;33815;48.386;11.738;2023-04-06T06:24:13;13.32;;;9.57;;
48040;SDS011;33815;48.386;11.738;2023-04-06T06:26:38;17.05;;;10.35;;
48040;SDS011;33815;48.386;11.738;2023-04-06T06:29:04;15.63;;;10.35;;
48040;SDS011;33815;48.386;11.738;2023-04-06T06:31:30;16.25;;;9.40;;
48040;SDS011;33815;48.386;11.738;2023-04-06T06:33:56;17.98;;;10.50;;
48040;SDS011;33815;48.386;11.738;2023-04-06T06:36:21;16.77;;;10.73;;
48040;SDS011;33815;48.386;11.738;2023-04-06T06:38:46;15.13;;;10.45;;
48040;SDS011;33815;48.386;11.738;2023-04-06T06:43:37;13.43;;;9.87;;
48040;SDS011;33815;48.386;11.738;2023-04-06T06:46:02;12.98;;;10.10;;
48040;SDS011;33815;48.386;11.738;2023-04-06T06:48:28;18.40;;;10.40;;
48040;SDS011;33815;48.386;11.738;2023-04-06T06:50:54;12.15;;;8.73;;
48040;SDS011;33815;48.386;11.738;2023-04-06T06:53:20;11.82;;;9.00;;
48040;SDS011;33815;48.386;11.738;2023-04-06T06:55:45;17.77;;;9.38;;
48040;SDS011;33815;48.386;11.738;2023-04-06T06:58:10;13.80;;;8.82;;
48040;SDS011;33815;48.386;11.738;2023-04-06T07:00:36;13.30;;;8.10;;
48040;SDS011;33815;48.386;11.738;2023-04-06T07:03:01;12.40;;;8.57;;
48040;SDS011;33815;48.386;11.738;2023-04-06T07:05:26;14.55;;;8.10;;
48040;SDS011;33815;48.386;11.738;2023-04-06T07:07:52;10.68;;;7.20;;
48040;SDS011;33815;48.386;11.738;2023-04-06T07:10:17;10.70;;;8.38;;
48040;SDS011;33815;48.386;11.738;2023-04-06T07:12:42;10.82;;;8.27;;
48040;SDS011;33815;48.386;11.738;2023-04-06T07:15:08;10.57;;;8.13;;
48040;SDS011;33815;48.386;11.738;2023-04-06T07:17:33;12.50;;;8.30;;
48040;SDS011;33815;48.386;11.738;2023-04-06T07:19:59;11.75;;;8.38;;
48040;SDS011;33815;48.386;11.738;2023-04-06T07:22:24;10.82;;;7.65;;
48040;SDS011;33815;48.386;11.738;2023-04-06T07:24:49;13.25;;;8.18;;
48040;SDS011;33815;48.386;11.738;2023-04-06T07:27:15;9.20;;;7.57;;
48040;SDS011;33815;48.386;11.738;2023-04-06T07:29:41;9.75;;;7.47;;
48040;SDS011;33815;48.386;11.738;2023-04-06T07:32:06;11.95;;;8.20;;
48040;SDS011;33815;48.386;11.738;2023-04-06T07:34:32;12.10;;;8.50;;
48040;SDS011;33815;48.386;11.738;2023-04-06T07:36:57;8.63;;;7.18;;
48040;SDS011;33815;48.386;11.738;2023-04-06T07:39:22;10.00;;;6.75;;
48040;SDS011;33815;48.386;11.738;2023-04-06T07:41:48;8.68;;;7.05;;
48040;SDS011;33815;48.386;11.738;2023-04-06T07:44:13;8.73;;;7.20;;
48040;SDS011;33815;48.386;11.738;2023-04-06T07:46:38;6.93;;;6.22;;
48040;SDS011;33815;48.386;11.738;2023-04-06T07:49:04;8.10;;;6.90;;
48040;SDS011;33815;48.386;11.738;2023-04-06T07:51:29;11.68;;;7.55;;
48040;SDS011;33815;48.386;11.738;2023-04-06T07:53:55;11.57;;;6.55;;
48040;SDS011;33815;48.386;11.738;2023-04-06T07:56:21;8.77;;;6.70;;
48040;SDS011;33815;48.386;11.738;2023-04-06T07:58:46;8.88;;;6.80;;
48040;SDS011;33815;48.386;11.738;2023-04-06T08:01:12;9.13;;;6.45;;
48040;SDS011;33815;48.386;11.738;2023-04-06T08:03:37;10.35;;;6.28;;
48040;SDS011;33815;48.386;11.738;2023-04-06T08:06:03;7.07;;;5.78;;
48040;SDS011;33815;48.386;11.738;2023-04-06T08:08:28;7.32;;;5.43;;
48040;SDS011;33815;48.386;11.738;2023-04-06T08:10:54;9.73;;;6.05;;
48040;SDS011;33815;48.386;11.738;2023-04-06T08:13:20;8.02;;;6.25;;
48040;SDS011;33815;48.386;11.738;2023-04-06T08:15:45;10.48;;;5.65;;
48040;SDS011;33815;48.386;11.738;2023-04-06T08:18:10;8.75;;;5.30;;
48040;SDS011;33815;48.386;11.738;2023-04-06T08:20:36;9.05;;;5.28;;
48040;SDS011;33815;48.386;11.738;2023-04-06T08:23:01;9.02;;;5.47;;
48040;SDS011;33815;48.386;11.738;2023-04-06T08:25:26;7.30;;;5.55;;
48040;SDS011;33815;48.386;11.738;2023-04-06T08:27:52;11.88;;;5.53;;
48040;SDS011;33815;48.386;11.738;2023-04-06T08:30:17;11.40;;;5.63;;
48040;SDS011;33815;48.386;11.738;2023-04-06T08:32:44;8.30;;;5.30;;
48040;SDS011;33815;48.386;11.738;2023-04-06T08:35:10;6.38;;;4.90;;
48040;SDS011;33815;48.386;11.738;2023-04-06T08:37:35;8.00;;;5.72;;
48040;SDS011;33815;48.386;11.738;2023-04-06T08:40:00;7.03;;;4.60;;
48040;SDS011;33815;48.386;11.738;2023-04-06T08:42:26;7.75;;;5.30;;
48040;SDS011;33815;48.386;11.738;2023-04-06T08:44:56;7.75;;;4.88;;
48040;SDS011;33815;48.386;11.738;2023-04-06T08:47:22;6.10;;;5.20;;
48040;SDS011;33815;48.386;11.738;2023-04-06T08:49:47;8.13;;;4.72;;
48040;SDS011;33815;48.386;11.738;2023-04-06T08:52:13;5.35;;;4.85;;
48040;SDS011;33815;48.386;11.738;2023-04-06T08:54:42;10.40;;;5.28;;
48040;SDS011;33815;48.386;11.738;2023-04-06T08:57:07;8.25;;;4.85;;
48040;SDS011;33815;48.386;11.738;2023-04-06T08:59:33;7.22;;;5.25;;
48040;SDS011;33815;48.386;11.738;2023-04-06T09:02:00;7.97;;;5.00;;
48040;SDS011;33815;48.386;11.738;2023-04-06T09:04:28;8.00;;;4.82;;
48040;SDS011;33815;48.386;11.738;2023-04-06T09:06:53;5.43;;;4.53;;
48040;SDS011;33815;48.386;11.738;2023-04-06T09:09:19;6.88;;;4.70;;
48040;SDS011;33815;48.386;11.738;2023-04-06T09:11:45;6.43;;;4.60;;
48040;SDS011;33815;48.386;11.738;2023-04-06T09:14:12;13.00;;;4.97;;
48040;SDS011;33815;48.386;11.738;2023-04-06T09:16:38;6.07;;;4.85;;
48040;SDS011;33815;48.386;11.738;2023-04-06T09:19:05;7.40;;;4.03;;
48040;SDS011;33815;48.386;11.738;2023-04-06T09:21:30;5.10;;;4.13;;
48040;SDS011;33815;48.386;11.738;2023-04-06T09:24:00;6.43;;;4.90;;
48040;SDS011;33815;48.386;11.738;2023-04-06T09:26:26;5.60;;;4.40;;
48040;SDS011;33815;48.386;11.738;2023-04-06T09:28:55;6.55;;;5.13;;
48040;SDS011;33815;48.386;11.738;2023-04-06T09:31:23;8.05;;;5.43;;
48040;SDS011;33815;48.386;11.738;2023-04-06T09:33:49;8.40;;;4.95;;
48040;SDS011;33815;48.386;11.738;2023-04-06T09:36:15;7.07;;;5.03;;
48040;SDS011;33815;48.386;11.738;2023-04-06T09:39:02;6.22;;;4.85;;
48040;SDS011;33815;48.386;11.738;2023-04-06T09:41:30;6.63;;;5.10;;
48040;SDS011;33815;48.386;11.738;2023-04-06T09:44:05;6.30;;;4.75;;
48040;SDS011;33815;48.386;11.738;2023-04-06T09:46:40;7.88;;;5.10;;
48040;SDS011;33815;48.386;11.738;2023-04-06T09:49:07;7.13;;;4.95;;
48040;SDS011;33815;48.386;11.738;2023-04-06T09:51:36;10.43;;;5.10;;
48040;SDS011;33815;48.386;11.738;2023-04-06T09:54:05;7.00;;;4.85;;
48040;SDS011;33815;48.386;11.738;2023-04-06T09:56:39;11.88;;;6.70;;
48040;SDS011;33815;48.386;11.738;2023-04-06T09:59:08;10.45;;;5.63;;
48040;SDS011;33815;48.386;11.738;2023-04-06T10:01:38;6.60;;;5.53;;
48040;SDS011;33815;48.386;11.738;2023-04-06T10:06:52;6.57;;;4.90;;
48040;SDS011;33815;48.386;11.738;2023-04-06T10:09:18;6.40;;;4.70;;
48040;SDS011;33815;48.386;11.738;2023-04-06T10:11:48;6.70;;;5.15;;
48040;SDS011;33815;48.386;11.738;2023-04-06T10:14:14;7.28;;;5.47;;
48040;SDS011;33815;48.386;11.738;2023-04-06T10:16:40;8.15;;;5.57;;
48040;SDS011;33815;48.386;11.738;2023-04-06T10:19:07;8.10;;;6.03;;
48040;SDS011;33815;48.386;11.738;2023-04-06T10:21:38;5.72;;;4.57;;
48040;SDS011;33815;48.386;11.738;2023-04-06T10:24:06;7.75;;;5.72;;
48040;SDS011;33815;48.386;11.738;2023-04-06T10:26:38;8.75;;;5.55;;
48040;SDS011;33815;48.386;11.738;2023-04-06T10:29:03;8.50;;;5.93;;
48040;SDS011;33815;48.386;11.738;2023-04-06T10:31:29;10.35;;;5.72;;
48040;SDS011;33815;48.386;11.738;2023-04-06T10:33:59;12.70;;;5.78;;
48040;SDS011;33815;48.386;11.738;2023-04-06T10:36:32;6.63;;;5.22;;
48040;SDS011;33815;48.386;11.738;2023-04-06T10:38:59;7.45;;;6.03;;
48040;SDS011;33815;48.386;11.738;2023-04-06T10:44:08;8.52;;;5.47;;
48040;SDS011;33815;48.386;11.738;2023-04-06T10:46:42;7.88;;;5.82;;
48040;SDS011;33815;48.386;11.738;2023-04-06T10:49:17;5.45;;;4.95;;
48040;SDS011;33815;48.386;11.738;2023-04-06T10:51:43;8.55;;;5.70;;
48040;SDS011;33815;48.386;11.738;2023-04-06T10:54:08;7.10;;;5.43;;
48040;SDS011;33815;48.386;11.738;2023-04-06T10:56:36;8.63;;;5.72;;
48040;SDS011;33815;48.386;11.738;2023-04-06T10:59:03;6.15;;;5.55;;
48040;SDS011;33815;48.386;11.738;2023-04-06T11:01:28;8.50;;;5.95;;
48040;SDS011;33815;48.386;11.738;2023-04-06T11:03:55;9.70;;;6.13;;
48040;SDS011;33815;48.386;11.738;2023-04-06T11:06:24;9.40;;;5.95;;
48040;SDS011;33815;48.386;11.738;2023-04-06T11:08:52;7.25;;;6.20;;
48040;SDS011;33815;48.386;11.738;2023-04-06T11:11:18;8.50;;;5.90;;
48040;SDS011;33815;48.386;11.738;2023-04-06T11:13:46;8.90;;;6.57;;
48040;SDS011;33815;48.386;11.738;2023-04-06T11:16:23;6.63;;;5.93;;
48040;SDS011;33815;48.386;11.738;2023-04-06T11:19:00;10.50;;;7.32;;
48040;SDS011;33815;48.386;11.738;2023-04-06T11:22:09;7.72;;;6.03;;
48040;SDS011;33815;48.386;11.738;2023-04-06T11:24:16;9.30;;;6.25;;
48040;SDS011;33815;48.386;11.738;2023-04-06T11:29:09;8.65;;;6.53;;
48040;SDS011;33815;48.386;11.738;2023-04-06T11:31:39;12.05;;;6.35;;
48040;SDS011;33815;48.386;11.738;2023-04-06T11:34:10;9.52;;;6.65;;
48040;SDS011;33815;48.386;11.738;2023-04-06T11:36:41;8.05;;;5.50;;
48040;SDS011;33815;48.386;11.738;2023-04-06T11:39:08;9.13;;;6.78;;
48040;SDS011;33815;48.386;11.738;2023-04-06T11:41:34;8.52;;;6.20;;
48040;SDS011;33815;48.386;11.738;2023-04-06T11:44:02;7.63;;;6.55;;
48040;SDS011;33815;48.386;11.738;2023-04-06T11:46:28;18.58;;;6.63;;
48040;SDS011;33815;48.386;11.738;2023-04-06T11:48:53;9.10;;;6.65;;
48040;SDS011;33815;48.386;11.738;2023-04-06T11:51:23;10.48;;;6.85;;
48040;SDS011;33815;48.386;11.738;2023-04-06T11:53:48;8.10;;;5.97;;
48040;SDS011;33815;48.386;11.738;2023-04-06T11:56:29;8.65;;;6.07;;
48040;SDS011;33815;48.386;11.738;2023-04-06T11:58:56;8.43;;;5.55;;
48040;SDS011;33815;48.386;11.738;2023-04-06T12:01:22;7.53;;;6.18;;
48040;SDS011;33815;48.386;11.738;2023-04-06T12:03:50;8.32;;;6.45;;
48040;SDS011;33815;48.386;11.738;2023-04-06T12:06:16;9.48;;;6.20;;
48040;SDS011;33815;48.386;11.738;2023-04-06T12:08:42;7.72;;;6.47;;
48040;SDS011;33815;48.386;11.738;2023-04-06T12:11:07;9.02;;;6.32;;
48040;SDS011;33815;48.386;11.738;2023-04-06T12:13:33;10.27;;;6.45;;
48040;SDS011;33815;48.386;11.738;2023-04-06T12:15:58;6.38;;;5.68;;
48040;SDS011;33815;48.386;11.738;2023-04-06T12:18:23;6.23;;;5.13;;
48040;SDS011;33815;48.386;11.738;2023-04-06T12:20:49;8.82;;;6.15;;
48040;SDS011;33815;48.386;11.738;2023-04-06T12:23:14;10.38;;;6.72;;
48040;SDS011;33815;48.386;11.738;2023-04-06T12:25:40;7.45;;;6.65;;
48040;SDS011;33815;48.386;11.738;2023-04-06T12:28:07;8.98;;;6.32;;
48040;SDS011;33815;48.386;11.738;2023-04-06T12:30:34;7.40;;;6.15;;
48040;SDS011;33815;48.386;11.738;2023-04-06T12:33:00;7.82;;;6.15;;
48040;SDS011;33815;48.386;11.738;2023-04-06T12:35:26;9.30;;;5.95;;
48040;SDS011;33815;48.386;11.738;2023-04-06T12:37:51;9.98;;;6.20;;
48040;SDS011;33815;48.386;11.738;2023-04-06T12:40:17;6.27;;;5.40;;
48040;SDS011;33815;48.386;11.738;2023-04-06T12:42:42;8.75;;;5.85;;
48040;SDS011;33815;48.386;11.738;2023-04-06T12:45:08;6.95;;;5.05;;
48040;SDS011;33815;48.386;11.738;2023-04-06T12:47:33;6.65;;;5.70;;
48040;SDS011;33815;48.386;11.738;2023-04-06T12:50:00;8.05;;;5.93;;
48040;SDS011;33815;48.386;11.738;2023-04-06T12:52:26;9.17;;;5.93;;
48040;SDS011;33815;48.386;11.738;2023-04-06T12:54:52;11.48;;;7.13;;
48040;SDS011;33815;48.386;11.738;2023-04-06T12:57:17;10.02;;;7.13;;
48040;SDS011;33815;48.386;11.738;2023-04-06T12:59:43;7.13;;;5.72;;
48040;SDS011;33815;48.386;11.738;2023-04-06T13:02:09;7.95;;;6.38;;
48040;SDS011;33815;48.386;11.738;2023-04-06T13:04:35;8.32;;;5.93;;
48040;SDS011;33815;48.386;11.738;2023-04-06T13:07:00;9.10;;;6.47;;
48040;SDS011;33815;48.386;11.738;2023-04-06T13:09:25;32.77;;;9.93;;
48040;SDS011;33815;48.386;11.738;2023-04-06T13:11:51;26.87;;;8.70;;
48040;SDS011;33815;48.386;11.738;2023-04-06T13:14:16;9.85;;;5.97;;
48040;SDS011;33815;48.386;11.738;2023-04-06T13:16:41;10.25;;;5.25;;
48040;SDS011;33815;48.386;11.738;2023-04-06T13:19:07;8.18;;;6.70;;
48040;SDS011;33815;48.386;11.738;2023-04-06T13:21:32;8.30;;;6.47;;
48040;SDS011;33815;48.386;11.738;2023-04-06T13:23:58;7.53;;;5.95;;
48040;SDS011;33815;48.386;11.738;2023-04-06T13:26:23;6.10;;;5.47;;
48040;SDS011;33815;48.386;11.738;2023-04-06T13:28:48;8.50;;;6.45;;
48040;SDS011;33815;48.386;11.738;2023-04-06T13:31:14;6.38;;;5.43;;
48040;SDS011;33815;48.386;11.738;2023-04-06T13:33:39;8.02;;;5.95;;
48040;SDS011;33815;48.386;11.738;2023-04-06T13:36:06;6.07;;;5.00;;
48040;SDS011;33815;48.386;11.738;2023-04-06T13:38:31;7.13;;;4.50;;
48040;SDS011;33815;48.386;11.738;2023-04-06T13:40:58;9.18;;;4.65;;
48040;SDS011;33815;48.386;11.738;2023-04-06T13:43:23;6.93;;;5.20;;
48040;SDS011;33815;48.386;11.738;2023-04-06T13:45:51;8.38;;;5.65;;
48040;SDS011;33815;48.386;11.738;2023-04-06T13:48:19;6.18;;;5.13;;
48040;SDS011;33815;48.386;11.738;2023-04-06T13:50:45;5.20;;;4.68;;
48040;SDS011;33815;48.386;11.738;2023-04-06T13:53:10;5.38;;;4.55;;
48040;SDS011;33815;48.386;11.738;2023-04-06T13:55:36;8.40;;;5.72;;
48040;SDS011;33815;48.386;11.738;2023-04-06T13:58:01;11.38;;;6.25;;
48040;SDS011;33815;48.386;11.738;2023-04-06T14:00:27;6.57;;;4.73;;
48040;SDS011;33815;48.386;11.738;2023-04-06T14:02:55;7.67;;;5.70;;
48040;SDS011;33815;48.386;11.738;2023-04-06T14:05:20;5.22;;;4.45;;
48040;SDS011;33815;48.386;11.738;2023-04-06T14:07:46;6.38;;;4.45;;
48040;SDS011;33815;48.386;11.738;2023-04-06T14:10:11;8.20;;;5.27;;
48040;SDS011;33815;48.386;11.738;2023-04-06T14:12:38;7.32;;;4.63;;
48040;SDS011;33815;48.386;11.738;2023-04-06T14:15:09;12.10;;;6.38;;
48040;SDS011;33815;48.386;11.738;2023-04-06T14:17:35;7.05;;;4.78;;
48040;SDS011;33815;48.386;11.738;2023-04-06T14:20:01;7.07;;;5.82;;
48040;SDS011;33815;48.386;11.738;2023-04-06T14:22:27;6.95;;;5.53;;
48040;SDS011;33815;48.386;11.738;2023-04-06T14:24:52;7.70;;;5.60;;
48040;SDS011;33815;48.386;11.738;2023-04-06T14:27:17;6.30;;;5.70;;
48040;SDS011;33815;48.386;11.738;2023-04-06T14:29:43;7.82;;;5.70;;
48040;SDS011;33815;48.386;11.738;2023-04-06T14:32:08;6.90;;;5.33;;
48040;SDS011;33815;48.386;11.738;2023-04-06T14:34:33;7.88;;;6.05;;
48040;SDS011;33815;48.386;11.738;2023-04-06T14:37:02;11.00;;;5.80;;
48040;SDS011;33815;48.386;11.738;2023-04-06T14:39:27;7.63;;;5.77;;